Saint Clair, Ohio
Current Conditions -  °F | °C
As of 2:53 AM on Saturday 20 Dec 2014 (Local Time) from KHAO Reporting Station
Overcast Overcast  
Wind Chill: 31°   Ceiling: 2100
Heat Index: 31°   Visibility: 10mi
Dew Point: 25°   Wind: 3mph
Humidity: 79%   Direction: 70°ENE
Pressure: 30.29"   Gusts: NA
Location:  39.4247°N, 84.5012°W
Report Text: KHAO 200753Z AUTO 07003KT 10SM OVC021 M01/M04 A3029 RMK AO2 SLP265 T10061039
Loading
Personal Weather Stations






























Interactive Weather Map New forecast layout! Learn more

10-Day Weather Forecast

Advertisements
Track Severe Weather on mobile